createdAt,value
2022-08-04T00:00:05.370Z,22.26
2022-08-04T00:03:03.509Z,22.17
2022-08-04T00:05:47.406Z,22.13
2022-08-04T00:08:46.971Z,22.09
2022-08-04T00:11:19.890Z,22.12
2022-08-04T00:14:03.013Z,22.07
2022-08-04T00:16:38.175Z,22.02
2022-08-04T00:19:32.380Z,21.94
2022-08-04T00:22:04.272Z,21.93
2022-08-04T00:24:32.451Z,21.87
2022-08-04T00:27:00.207Z,21.79
2022-08-04T00:29:28.124Z,21.77
2022-08-04T00:31:58.320Z,21.67
2022-08-04T00:34:28.036Z,21.62
2022-08-04T00:36:56.399Z,21.62
2022-08-04T00:39:23.984Z,21.62
2022-08-04T00:41:59.593Z,21.65
2022-08-04T00:44:58.099Z,21.62
2022-08-04T00:47:37.682Z,21.60
2022-08-04T00:50:07.909Z,21.63
2022-08-04T00:52:46.540Z,21.62
2022-08-04T00:55:18.639Z,21.53
2022-08-04T00:58:24.067Z,21.49
2022-08-04T01:01:08.574Z,21.45
2022-08-04T01:04:03.446Z,21.38
2022-08-04T01:07:03.549Z,21.30
2022-08-04T01:09:50.639Z,21.21
2022-08-04T01:12:46.842Z,21.21
2022-08-04T01:16:16.683Z,21.07
2022-08-04T01:18:55.604Z,20.96
2022-08-04T01:21:28.271Z,20.97
2022-08-04T01:24:17.187Z,20.96
2022-08-04T01:26:57.791Z,20.87
2022-08-04T01:29:30.493Z,20.79
2022-08-04T01:32:19.798Z,20.72
2022-08-04T01:35:01.204Z,20.59
2022-08-04T01:38:18.457Z,20.47
2022-08-04T01:40:53.089Z,20.48
2022-08-04T01:43:20.838Z,20.50
2022-08-04T01:45:56.907Z,20.52
2022-08-04T01:48:25.207Z,20.48
2022-08-04T01:50:58.809Z,20.50
2022-08-04T01:53:33.481Z,20.63
2022-08-04T01:56:02.347Z,20.67
2022-08-04T01:58:30.495Z,20.72
2022-08-04T02:01:08.226Z,20.73
2022-08-04T02:04:18.900Z,20.70
2022-08-04T02:06:38.626Z,20.66
2022-08-04T02:09:05.075Z,20.65
2022-08-04T02:11:31.735Z,20.66
2022-08-04T02:14:08.483Z,20.66
2022-08-04T02:16:46.814Z,20.69
2022-08-04T02:19:44.414Z,20.69
2022-08-04T02:22:18.858Z,20.76
2022-08-04T02:24:58.724Z,20.83
2022-08-04T02:27:29.942Z,20.91
2022-08-04T02:30:19.016Z,20.92
2022-08-04T02:32:48.656Z,20.94
2022-08-04T02:35:20.752Z,20.86
2022-08-04T02:37:48.932Z,20.83
2022-08-04T02:40:21.108Z,20.85
2022-08-04T02:42:47.764Z,20.85
2022-08-04T02:45:18.537Z,20.85
2022-08-04T02:48:30.522Z,20.86
2022-08-04T02:50:35.398Z,20.84
2022-08-04T02:53:04.400Z,20.83
2022-08-04T02:55:37.933Z,20.77
2022-08-04T02:58:05.653Z,20.63
2022-08-04T03:00:32.917Z,20.54
2022-08-04T03:03:24.629Z,20.45
2022-08-04T03:06:17.464Z,20.36
2022-08-04T03:09:05.768Z,20.28
2022-08-04T03:11:38.331Z,20.27
2022-08-04T03:14:28.517Z,20.20
2022-08-04T03:17:32.364Z,20.17
2022-08-04T03:20:27.642Z,20.24
2022-08-04T03:23:42.191Z,20.27
2022-08-04T03:26:33.064Z,20.27
2022-08-04T03:29:36.110Z,20.27
2022-08-04T03:32:25.351Z,20.33
2022-08-04T03:35:24.204Z,20.43
2022-08-04T03:38:26.253Z,20.48
2022-08-04T03:41:10.409Z,20.42
2022-08-04T03:44:00.833Z,20.30
2022-08-04T03:46:43.684Z,20.24
2022-08-04T03:49:49.402Z,20.24
2022-08-04T03:52:43.673Z,20.16
2022-08-04T03:55:41.249Z,20.09
2022-08-04T03:58:19.724Z,20.07
2022-08-04T04:01:30.574Z,20.07
2022-08-04T04:04:59.897Z,20.18
2022-08-04T04:07:40.784Z,20.26
2022-08-04T04:10:29.153Z,20.35
2022-08-04T04:13:54.974Z,20.40
2022-08-04T04:16:24.261Z,20.44
2022-08-04T04:19:17.263Z,20.48
2022-08-04T04:22:13.303Z,20.53
2022-08-04T04:25:04.491Z,20.59
2022-08-04T04:27:50.545Z,20.63
2022-08-04T04:30:46.312Z,20.66
2022-08-04T04:33:44.395Z,20.65
2022-08-04T04:36:32.993Z,20.67
2022-08-04T04:39:24.266Z,20.71
2022-08-04T04:42:09.528Z,20.78
2022-08-04T04:44:55.367Z,20.80
2022-08-04T04:48:05.907Z,20.84
2022-08-04T04:50:36.424Z,20.87
2022-08-04T04:53:34.709Z,20.91
2022-08-04T04:56:43.748Z,20.94
2022-08-04T04:59:13.501Z,20.97
2022-08-04T05:02:17.137Z,20.98
2022-08-04T05:04:53.281Z,21.02
2022-08-04T05:07:37.373Z,20.99
2022-08-04T05:10:24.317Z,20.96
2022-08-04T05:14:36.199Z,21.02
2022-08-04T05:16:20.620Z,21.05
2022-08-04T05:18:54.742Z,21.13
2022-08-04T05:21:45.371Z,21.24
2022-08-04T05:24:16.295Z,21.38
2022-08-04T05:26:48.488Z,21.44
2022-08-04T05:29:35.118Z,21.55
2022-08-04T05:32:07.400Z,21.56
2022-08-04T05:34:40.985Z,21.64
2022-08-04T05:37:20.618Z,21.70
2022-08-04T05:39:54.005Z,21.85
2022-08-04T05:42:21.794Z,21.97
2022-08-04T05:44:51.235Z,22.09
2022-08-04T05:47:21.446Z,22.24
2022-08-04T05:49:55.693Z,22.36
2022-08-04T05:52:30.353Z,22.44
2022-08-04T05:54:59.310Z,22.67
2022-08-04T05:57:26.871Z,22.78
2022-08-04T05:59:57.126Z,22.86
2022-08-04T06:02:25.379Z,22.96
2022-08-04T06:04:54.055Z,23.02
2022-08-04T06:07:20.836Z,23.03
2022-08-04T06:09:47.500Z,23.11
2022-08-04T06:12:38.146Z,23.28
2022-08-04T06:15:06.431Z,23.33
2022-08-04T06:18:35.494Z,23.35
2022-08-04T06:20:32.535Z,23.45
2022-08-04T06:23:13.618Z,23.62
2022-08-04T06:26:00.537Z,23.74
2022-08-04T06:28:28.967Z,23.84
2022-08-04T06:32:27.708Z,23.97
2022-08-04T06:33:54.867Z,24.18
2022-08-04T06:36:22.115Z,24.32
2022-08-04T06:38:58.336Z,24.41
2022-08-04T06:41:26.242Z,24.60
2022-08-04T06:43:53.921Z,24.56
2022-08-04T06:46:20.818Z,24.73
2022-08-04T06:48:48.146Z,24.64
2022-08-04T06:51:24.863Z,24.67
2022-08-04T06:53:55.716Z,24.81
2022-08-04T06:56:25.308Z,24.85
2022-08-04T06:58:55.857Z,24.98
2022-08-04T07:01:24.638Z,25.03
2022-08-04T07:03:52.873Z,25.08
2022-08-04T07:06:23.913Z,25.38
2022-08-04T07:08:51.730Z,25.52
2022-08-04T07:11:20.293Z,25.69
2022-08-04T07:13:50.047Z,25.95
2022-08-04T07:16:18.401Z,26.12
2022-08-04T07:18:45.235Z,26.23
2022-08-04T07:21:18.573Z,26.44
2022-08-04T07:23:45.368Z,26.62
2022-08-04T07:26:13.350Z,26.75
2022-08-04T07:28:41.777Z,26.72
2022-08-04T07:31:34.326Z,26.77
2022-08-04T07:34:16.805Z,26.74
2022-08-04T07:36:50.973Z,26.90
2022-08-04T07:39:27.294Z,26.99
2022-08-04T07:41:57.197Z,27.26
2022-08-04T07:44:23.706Z,27.39
2022-08-04T07:46:50.180Z,27.62
2022-08-04T07:49:56.301Z,27.67
2022-08-04T07:52:04.603Z,27.91
2022-08-04T07:54:31.277Z,28.28
2022-08-04T07:56:57.953Z,28.86
2022-08-04T07:59:24.864Z,29.13
2022-08-04T08:01:53.206Z,28.98
2022-08-04T08:04:20.882Z,28.94
2022-08-04T08:06:47.537Z,29.15
2022-08-04T08:09:16.120Z,29.42
2022-08-04T08:12:35.366Z,29.63
2022-08-04T08:14:31.529Z,29.81
2022-08-04T08:17:01.840Z,29.90
2022-08-04T08:19:29.906Z,30.11
2022-08-04T08:21:59.297Z,30.25
2022-08-04T08:24:26.479Z,30.51
2022-08-04T08:26:54.055Z,30.55
2022-08-04T08:29:21.144Z,30.58
2022-08-04T08:31:57.581Z,30.54
2022-08-04T08:34:31.072Z,30.58
2022-08-04T08:37:16.627Z,30.85
2022-08-04T08:39:56.085Z,31.00
2022-08-04T08:42:58.559Z,31.23
2022-08-04T08:46:04.262Z,31.43
2022-08-04T08:49:05.388Z,31.60
2022-08-04T08:51:55.746Z,31.74
2022-08-04T08:54:54.844Z,32.00
2022-08-04T08:57:59.241Z,32.01
2022-08-04T09:00:55.598Z,32.22
2022-08-04T09:03:38.367Z,32.53
2022-08-04T09:06:18.990Z,32.73
2022-08-04T09:09:05.493Z,32.82
2022-08-04T09:11:41.982Z,32.90
2022-08-04T09:14:24.713Z,32.88
2022-08-04T09:17:05.275Z,32.85
2022-08-04T09:19:48.550Z,33.11
2022-08-04T09:22:30.015Z,33.20
2022-08-04T09:25:11.052Z,33.21
2022-08-04T09:28:06.061Z,33.49
2022-08-04T09:30:40.609Z,33.57
2022-08-04T09:33:44.615Z,33.74
2022-08-04T09:36:34.628Z,34.04
2022-08-04T09:39:11.910Z,34.06
2022-08-04T09:41:56.598Z,34.13
2022-08-04T09:44:52.723Z,33.99
2022-08-04T09:47:46.440Z,34.14
2022-08-04T09:50:34.482Z,34.04
2022-08-04T09:53:38.616Z,34.22
2022-08-04T09:56:17.548Z,33.96
2022-08-04T09:59:00.099Z,33.78
2022-08-04T10:01:31.681Z,33.57
2022-08-04T10:04:03.874Z,33.57
2022-08-04T10:06:45.764Z,33.70
2022-08-04T10:09:33.649Z,34.02
2022-08-04T10:12:12.909Z,34.17
2022-08-04T10:14:51.422Z,34.38
2022-08-04T10:17:39.408Z,34.20
2022-08-04T10:20:37.903Z,34.27
2022-08-04T10:23:56.214Z,34.17
2022-08-04T10:26:30.902Z,34.19
2022-08-04T10:29:09.655Z,34.35
2022-08-04T10:31:55.765Z,34.28
2022-08-04T10:34:27.662Z,34.48
2022-08-04T10:37:06.158Z,34.55
2022-08-04T10:40:03.697Z,34.58
2022-08-04T10:42:31.880Z,34.82
2022-08-04T10:45:13.907Z,34.91
2022-08-04T10:47:53.317Z,34.67
2022-08-04T10:50:23.580Z,34.85
2022-08-04T10:53:01.120Z,34.93
2022-08-04T10:56:06.221Z,34.88
2022-08-04T10:58:48.695Z,35.15
2022-08-04T11:01:59.722Z,35.21
2022-08-04T11:04:37.926Z,35.04
2022-08-04T11:07:04.702Z,35.18
2022-08-04T11:09:33.710Z,35.23
2022-08-04T11:12:09.984Z,35.22
2022-08-04T11:14:46.698Z,35.09
2022-08-04T11:17:22.615Z,35.14
2022-08-04T11:20:24.820Z,35.30
2022-08-04T11:23:02.655Z,35.56
2022-08-04T11:25:36.162Z,35.63
2022-08-04T11:28:11.253Z,35.56
2022-08-04T11:30:52.368Z,35.54
2022-08-04T11:33:22.491Z,35.62
2022-08-04T11:36:04.458Z,35.75
2022-08-04T11:38:51.838Z,35.31
2022-08-04T11:41:26.558Z,35.05
2022-08-04T11:44:01.627Z,34.80
2022-08-04T11:46:46.461Z,34.65
2022-08-04T11:49:57.341Z,34.59
2022-08-04T11:52:22.112Z,34.51
2022-08-04T11:54:52.354Z,34.55
2022-08-04T11:57:21.058Z,34.48
2022-08-04T11:59:49.382Z,34.48
2022-08-04T12:02:37.922Z,34.43
2022-08-04T12:05:07.349Z,34.02
2022-08-04T12:08:03.163Z,33.88
2022-08-04T12:11:09.013Z,34.03
2022-08-04T12:14:01.059Z,34.68
2022-08-04T12:16:35.845Z,35.16
2022-08-04T12:19:09.787Z,35.58
2022-08-04T12:21:48.028Z,35.86
2022-08-04T12:24:22.513Z,35.90
2022-08-04T12:27:04.655Z,35.85
2022-08-04T12:29:34.640Z,36.06
2022-08-04T12:32:13.994Z,36.22
2022-08-04T12:34:49.337Z,36.29
2022-08-04T12:37:29.667Z,36.18
2022-08-04T12:40:28.306Z,36.45
2022-08-04T12:43:02.116Z,36.49
2022-08-04T12:45:29.941Z,36.51
2022-08-04T12:48:00.743Z,36.48
2022-08-04T12:50:29.999Z,35.74
2022-08-04T12:53:02.031Z,35.51
2022-08-04T12:55:31.772Z,35.65
2022-08-04T12:58:00.843Z,35.56
2022-08-04T13:00:38.042Z,35.35
2022-08-04T13:03:10.970Z,35.14
2022-08-04T13:05:39.941Z,35.30
2022-08-04T13:08:08.443Z,35.70
2022-08-04T13:10:39.342Z,35.61
2022-08-04T13:13:06.597Z,35.74
2022-08-04T13:15:33.607Z,36.08
2022-08-04T13:18:15.570Z,35.96
2022-08-04T13:20:43.866Z,35.52
2022-08-04T13:23:14.355Z,35.48
2022-08-04T13:26:42.216Z,35.11
2022-08-04T13:28:34.247Z,35.05
2022-08-04T13:31:02.773Z,34.77
2022-08-04T13:33:35.419Z,34.83
2022-08-04T13:36:02.797Z,34.75
2022-08-04T13:38:30.298Z,34.78
2022-08-04T13:41:02.142Z,35.42
2022-08-04T13:44:16.860Z,35.66
2022-08-04T13:46:31.506Z,35.74
2022-08-04T13:49:28.205Z,35.75
2022-08-04T13:52:01.913Z,36.09
2022-08-04T13:54:44.016Z,35.67
2022-08-04T13:57:27.616Z,35.37
2022-08-04T14:00:00.073Z,35.66
2022-08-04T14:02:37.774Z,36.03
2022-08-04T14:05:18.389Z,35.97
2022-08-04T14:07:49.732Z,36.17
2022-08-04T14:10:16.210Z,36.34
2022-08-04T14:12:48.177Z,36.43
2022-08-04T14:16:01.599Z,36.18
2022-08-04T14:18:30.352Z,36.16
2022-08-04T14:21:02.578Z,35.97
2022-08-04T14:23:37.452Z,36.14
2022-08-04T14:26:35.258Z,36.54
2022-08-04T14:29:27.025Z,36.41
2022-08-04T14:32:10.563Z,36.35
2022-08-04T14:34:41.447Z,35.73
2022-08-04T14:37:18.153Z,35.30
2022-08-04T14:40:18.539Z,34.95
2022-08-04T14:42:55.681Z,34.82
2022-08-04T14:45:38.150Z,34.76
2022-08-04T14:48:13.518Z,34.56
2022-08-04T14:50:48.329Z,34.39
2022-08-04T14:53:29.221Z,34.27
2022-08-04T14:55:58.305Z,34.20
2022-08-04T14:58:35.799Z,34.20
2022-08-04T15:01:10.478Z,34.07
2022-08-04T15:03:50.766Z,34.07
2022-08-04T15:06:26.423Z,34.18
2022-08-04T15:08:56.863Z,34.40
2022-08-04T15:11:24.907Z,33.68
2022-08-04T15:13:53.330Z,32.80
2022-08-04T15:16:21.406Z,31.96
2022-08-04T15:18:49.122Z,31.32
2022-08-04T15:21:17.035Z,31.07
2022-08-04T15:23:43.601Z,30.66
2022-08-04T15:26:15.449Z,30.29
2022-08-04T15:28:48.853Z,29.89
2022-08-04T15:32:07.162Z,29.69
2022-08-04T15:34:06.674Z,29.69
2022-08-04T15:36:38.522Z,29.54
2022-08-04T15:39:27.013Z,29.34
2022-08-04T15:42:21.865Z,29.22
2022-08-04T15:45:04.101Z,29.16
2022-08-04T15:47:30.769Z,28.95
2022-08-04T15:50:11.954Z,28.84
2022-08-04T15:53:10.710Z,28.54
2022-08-04T15:55:44.127Z,28.24
2022-08-04T15:58:12.887Z,28.32
2022-08-04T16:00:55.150Z,27.95
2022-08-04T16:03:59.262Z,27.78
2022-08-04T16:06:22.850Z,27.65
2022-08-04T16:08:57.378Z,27.60
2022-08-04T16:11:31.166Z,27.46
2022-08-04T16:13:58.461Z,27.56
2022-08-04T16:16:29.232Z,27.59
2022-08-04T16:19:04.268Z,27.60
2022-08-04T16:21:33.410Z,27.64
2022-08-04T16:24:10.111Z,27.58
2022-08-04T16:26:36.620Z,27.46
2022-08-04T16:29:36.423Z,27.26
2022-08-04T16:32:06.211Z,27.31
2022-08-04T16:37:55.233Z,27.49
2022-08-04T16:40:37.732Z,27.48
2022-08-04T16:43:31.006Z,27.58
2022-08-04T16:46:04.558Z,27.58
2022-08-04T16:48:35.788Z,27.59
2022-08-04T16:51:06.344Z,27.47
2022-08-04T16:53:57.699Z,27.47
2022-08-04T16:56:29.561Z,27.52
2022-08-04T16:58:56.921Z,27.59
2022-08-04T17:01:50.166Z,27.59
2022-08-04T17:04:17.100Z,27.61
2022-08-04T17:06:46.535Z,27.60
2022-08-04T17:09:18.330Z,27.71
2022-08-04T17:11:46.443Z,27.83
2022-08-04T17:14:13.598Z,27.85
2022-08-04T17:16:42.500Z,27.83
2022-08-04T17:19:25.251Z,27.82
2022-08-04T17:22:18.174Z,27.77
2022-08-04T17:24:45.033Z,27.75
2022-08-04T17:28:10.041Z,27.53
2022-08-04T17:29:59.285Z,27.48
2022-08-04T17:32:26.348Z,27.39
2022-08-04T17:35:00.096Z,27.40
2022-08-04T17:37:41.111Z,27.31
2022-08-04T17:40:22.520Z,27.11
2022-08-04T17:44:05.193Z,27.08
2022-08-04T17:46:34.234Z,26.98
2022-08-04T17:49:03.344Z,26.93
2022-08-04T17:52:04.648Z,26.93
2022-08-04T17:54:37.167Z,26.88
2022-08-04T17:57:23.630Z,26.88
2022-08-04T17:59:57.438Z,26.86
2022-08-04T18:02:33.300Z,26.71
2022-08-04T18:05:07.840Z,26.64
2022-08-04T18:08:38.571Z,26.59
2022-08-04T18:10:54.539Z,26.52
2022-08-04T18:13:28.030Z,26.49
2022-08-04T18:16:04.969Z,26.43
2022-08-04T18:18:31.847Z,26.38
2022-08-04T18:21:02.754Z,26.23
2022-08-04T18:26:17.950Z,26.11
2022-08-04T18:28:44.512Z,26.11
2022-08-04T18:31:11.202Z,26.04
2022-08-04T18:33:42.937Z,26.08
2022-08-04T18:36:34.365Z,25.99
2022-08-04T18:39:12.750Z,25.90
2022-08-04T18:44:29.409Z,25.73
2022-08-04T18:50:59.886Z,25.66
2022-08-04T18:52:32.294Z,25.70
2022-08-04T18:55:01.842Z,25.71
2022-08-04T18:57:58.931Z,25.75
2022-08-04T19:00:17.599Z,25.78
2022-08-04T19:02:46.883Z,25.78
2022-08-04T19:05:17.032Z,25.72
2022-08-04T19:08:01.770Z,25.68
2022-08-04T19:10:30.885Z,25.59
2022-08-04T19:12:58.744Z,25.65
2022-08-04T19:15:34.608Z,25.61
2022-08-04T19:18:01.969Z,25.56
2022-08-04T19:20:29.398Z,25.52
2022-08-04T19:24:28.584Z,25.52
2022-08-04T19:25:58.896Z,25.34
2022-08-04T19:28:34.435Z,25.22
2022-08-04T19:31:09.457Z,25.18
2022-08-04T19:33:59.544Z,25.15
2022-08-04T19:39:14.466Z,24.87
2022-08-04T19:42:06.633Z,24.71
2022-08-04T19:44:29.948Z,24.60
2022-08-04T19:46:57.858Z,24.55
2022-08-04T19:50:04.108Z,24.35
2022-08-04T19:52:14.384Z,24.26
2022-08-04T19:55:00.190Z,24.22
2022-08-04T19:57:37.937Z,24.20
2022-08-04T20:00:08.973Z,24.13
2022-08-04T20:02:36.519Z,24.12
2022-08-04T20:05:08.657Z,24.04
2022-08-04T20:07:35.729Z,23.96
2022-08-04T20:10:04.976Z,23.97
2022-08-04T20:12:31.813Z,23.88
2022-08-04T20:14:58.290Z,23.86
2022-08-04T20:18:07.079Z,23.95
2022-08-04T20:20:13.486Z,23.80
2022-08-04T20:22:51.999Z,23.65
2022-08-04T20:25:36.055Z,23.47
2022-08-04T20:28:03.913Z,23.39
2022-08-04T20:30:30.758Z,23.45
2022-08-04T20:32:58.079Z,23.35
2022-08-04T20:35:26.898Z,23.26
2022-08-04T20:38:00.374Z,23.27
2022-08-04T20:40:28.377Z,23.23
2022-08-04T20:42:57.205Z,23.13
2022-08-04T20:45:24.120Z,23.16
2022-08-04T20:48:10.540Z,23.04
2022-08-04T20:50:37.016Z,22.92
2022-08-04T20:53:05.663Z,22.92
2022-08-04T20:55:55.243Z,22.89
2022-08-04T20:58:27.572Z,22.91
2022-08-04T21:00:55.303Z,22.98
2022-08-04T21:03:49.701Z,22.96
2022-08-04T21:06:08.743Z,22.97
2022-08-04T21:08:35.153Z,22.93
2022-08-04T21:11:03.082Z,22.83
2022-08-04T21:13:50.700Z,22.83
2022-08-04T21:16:53.573Z,22.80
2022-08-04T21:19:06.711Z,22.73
2022-08-04T21:21:40.536Z,22.70
2022-08-04T21:24:07.783Z,22.61
2022-08-04T21:26:35.046Z,22.55
2022-08-04T21:29:04.121Z,22.47
2022-08-04T21:31:30.676Z,22.41
2022-08-04T21:34:03.337Z,22.42
2022-08-04T21:36:30.478Z,22.34
2022-08-04T21:38:58.094Z,22.26
2022-08-04T21:41:27.080Z,22.22
2022-08-04T21:43:56.231Z,22.17
2022-08-04T21:46:24.295Z,22.19
2022-08-04T21:48:51.172Z,22.18
2022-08-04T21:51:55.802Z,22.31
2022-08-04T21:54:15.269Z,22.17
2022-08-04T21:56:51.004Z,22.10
2022-08-04T21:59:28.588Z,21.95
2022-08-04T22:02:00.318Z,21.89
2022-08-04T22:04:28.300Z,21.90
2022-08-04T22:07:02.777Z,21.91
2022-08-04T22:09:30.631Z,21.90
2022-08-04T22:12:10.437Z,21.87
2022-08-04T22:14:39.440Z,21.81
2022-08-04T22:17:06.008Z,21.84
2022-08-04T22:19:49.992Z,21.80
2022-08-04T22:22:25.314Z,21.70
2022-08-04T22:24:58.541Z,21.62
2022-08-04T22:27:47.383Z,21.63
2022-08-04T22:30:17.224Z,21.64
2022-08-04T22:32:48.143Z,21.57
2022-08-04T22:35:43.045Z,21.49
2022-08-04T22:38:06.346Z,21.52
2022-08-04T22:40:47.616Z,21.42
2022-08-04T22:43:32.826Z,21.32
2022-08-04T22:46:08.345Z,21.33
2022-08-04T22:48:37.671Z,21.24
2022-08-04T22:51:06.414Z,21.23
2022-08-04T22:53:35.389Z,21.20
2022-08-04T22:56:09.445Z,21.18
2022-08-04T22:58:51.170Z,21.09
2022-08-04T23:01:18.543Z,20.98
2022-08-04T23:03:50.855Z,20.95
2022-08-04T23:06:24.393Z,20.86
2022-08-04T23:08:54.100Z,20.81
2022-08-04T23:11:20.720Z,20.68
2022-08-04T23:13:47.325Z,20.55
2022-08-04T23:16:15.564Z,20.52
2022-08-04T23:18:45.288Z,20.50
2022-08-04T23:21:16.101Z,20.51
2022-08-04T23:23:45.563Z,20.49
2022-08-04T23:26:27.565Z,20.40
2022-08-04T23:28:57.066Z,20.38
2022-08-04T23:31:24.485Z,20.30
2022-08-04T23:33:52.266Z,20.27
2022-08-04T23:36:29.458Z,20.32
2022-08-04T23:39:03.925Z,20.18
2022-08-04T23:41:53.479Z,20.16
2022-08-04T23:44:17.536Z,19.95
2022-08-04T23:46:51.062Z,19.84
2022-08-04T23:49:20.017Z,19.82
2022-08-04T23:51:49.811Z,19.94
2022-08-04T23:54:16.281Z,19.74
2022-08-04T23:56:50.062Z,19.75
2022-08-04T23:59:17.878Z,19.70
